createdAt,value
2022-08-24T00:00:20.751Z,26.80
2022-08-24T00:02:48.981Z,26.95
2022-08-24T00:05:21.469Z,26.86
2022-08-24T00:07:49.976Z,26.72
2022-08-24T00:10:18.117Z,26.86
2022-08-24T00:12:45.933Z,26.84
2022-08-24T00:15:14.242Z,26.78
2022-08-24T00:17:42.289Z,26.79
2022-08-24T00:20:11.682Z,26.75
2022-08-24T00:22:41.216Z,26.73
2022-08-24T00:27:43.600Z,26.67
2022-08-24T00:30:15.426Z,26.64
2022-08-24T00:32:43.370Z,26.60
2022-08-24T00:35:12.060Z,26.56
2022-08-24T00:37:41.444Z,26.19
2022-08-24T00:40:11.686Z,26.54
2022-08-24T00:42:41.802Z,25.75
2022-08-24T00:45:11.085Z,26.49
2022-08-24T00:47:42.066Z,26.45
2022-08-24T00:50:19.999Z,26.41
2022-08-24T00:52:50.837Z,26.37
2022-08-24T00:55:20.141Z,26.26
2022-08-24T00:57:49.284Z,26.30
2022-08-24T01:00:19.108Z,26.22
2022-08-24T01:02:49.112Z,26.09
2022-08-24T01:05:17.955Z,26.18
2022-08-24T01:07:49.365Z,26.04
2022-08-24T01:10:19.904Z,26.16
2022-08-24T01:13:00.466Z,26.01
2022-08-24T01:15:29.129Z,26.12
2022-08-24T01:18:14.511Z,26.01
2022-08-24T01:20:44.284Z,26.03
2022-08-24T01:23:15.008Z,25.75
2022-08-24T01:25:44.873Z,25.99
2022-08-24T01:28:14.730Z,25.95
2022-08-24T01:30:43.436Z,25.73
2022-08-24T01:33:11.512Z,25.87
2022-08-24T01:35:40.011Z,25.83
2022-08-24T01:38:08.860Z,25.79
2022-08-24T01:40:37.895Z,25.57
2022-08-24T01:43:07.420Z,25.70
2022-08-24T01:45:36.371Z,25.68
2022-08-24T01:48:04.854Z,25.64
2022-08-24T01:50:32.813Z,25.50
2022-08-24T01:53:05.474Z,25.60
2022-08-24T01:55:33.822Z,25.57
2022-08-24T01:58:01.799Z,25.55
2022-08-24T02:00:31.164Z,25.52
2022-08-24T02:02:59.276Z,25.49
2022-08-24T02:05:27.247Z,25.47
2022-08-24T02:07:55.825Z,25.26
2022-08-24T02:10:23.683Z,25.38
2022-08-24T02:12:57.990Z,25.12
2022-08-24T02:15:28.498Z,25.36
2022-08-24T02:17:57.804Z,25.33
2022-08-24T02:20:25.736Z,25.32
2022-08-24T02:22:53.842Z,25.02
2022-08-24T02:25:21.957Z,25.27
2022-08-24T02:27:50.141Z,25.24
2022-08-24T02:30:18.160Z,25.24
2022-08-24T02:32:47.192Z,25.16
2022-08-24T02:35:16.573Z,25.16
2022-08-24T02:37:44.579Z,25.14
2022-08-24T02:40:12.610Z,25.12
2022-08-24T02:42:40.689Z,25.09
2022-08-24T02:45:09.628Z,25.06
2022-08-24T02:47:38.819Z,25.05
2022-08-24T02:50:07.596Z,24.96
2022-08-24T02:52:37.203Z,24.99
2022-08-24T02:55:05.715Z,24.98
2022-08-24T02:57:34.604Z,24.93
2022-08-24T03:00:04.968Z,24.89
2022-08-24T03:02:34.927Z,24.85
2022-08-24T03:05:03.426Z,24.80
2022-08-24T03:07:31.357Z,24.78
2022-08-24T03:10:00.775Z,24.73
2022-08-24T03:12:30.079Z,24.67
2022-08-24T03:14:57.988Z,24.39
2022-08-24T03:17:25.971Z,24.61
2022-08-24T03:19:53.864Z,24.61
2022-08-24T03:22:23.792Z,24.55
2022-08-24T03:24:51.637Z,24.58
2022-08-24T03:27:20.806Z,24.51
2022-08-24T03:29:49.104Z,24.47
2022-08-24T03:32:17.811Z,24.45
2022-08-24T03:34:45.879Z,24.43
2022-08-24T03:37:13.869Z,24.42
2022-08-24T03:39:42.808Z,24.38
2022-08-24T03:42:10.657Z,24.38
2022-08-24T03:44:41.309Z,24.34
2022-08-24T03:47:09.951Z,24.29
2022-08-24T03:49:38.055Z,24.29
2022-08-24T03:52:06.095Z,24.24
2022-08-24T03:54:33.955Z,24.21
2022-08-24T03:57:01.921Z,24.17
2022-08-24T03:59:29.896Z,23.98
2022-08-24T04:01:59.268Z,24.09
2022-08-24T04:04:27.180Z,24.08
2022-08-24T04:06:55.087Z,24.02
2022-08-24T04:09:22.977Z,24.03
2022-08-24T04:11:52.015Z,24.01
2022-08-24T04:14:27.600Z,23.87
2022-08-24T04:16:57.905Z,23.94
2022-08-24T04:19:27.509Z,23.91
2022-08-24T04:21:57.483Z,23.88
2022-08-24T04:24:25.568Z,23.84
2022-08-24T04:26:53.505Z,23.80
2022-08-24T04:29:21.488Z,23.82
2022-08-24T04:31:49.700Z,23.82
2022-08-24T04:34:18.556Z,23.80
2022-08-24T04:36:48.083Z,23.80
2022-08-24T04:39:16.126Z,23.70
2022-08-24T04:41:44.176Z,23.72
2022-08-24T04:44:12.267Z,23.56
2022-08-24T04:46:40.426Z,23.71
2022-08-24T04:49:08.555Z,23.70
2022-08-24T04:51:36.975Z,23.71
2022-08-24T04:54:07.933Z,23.74
2022-08-24T04:56:36.107Z,23.76
2022-08-24T04:59:04.803Z,23.66
2022-08-24T05:01:33.751Z,23.81
2022-08-24T05:04:01.734Z,23.83
2022-08-24T05:06:30.654Z,23.83
2022-08-24T05:08:58.598Z,23.79
2022-08-24T05:11:29.036Z,23.54
2022-08-24T05:13:57.353Z,23.80
2022-08-24T05:16:25.880Z,23.80
2022-08-24T05:18:54.705Z,23.82
2022-08-24T05:21:23.617Z,23.82
2022-08-24T05:23:51.628Z,23.86
2022-08-24T05:26:21.186Z,23.89
2022-08-24T05:28:58.248Z,23.76
2022-08-24T05:31:27.676Z,23.97
2022-08-24T05:34:05.800Z,23.81
2022-08-24T05:36:34.771Z,23.79
2022-08-24T05:39:55.246Z,24.06
2022-08-24T05:42:23.142Z,23.99
2022-08-24T05:44:52.489Z,24.08
2022-08-24T05:47:20.303Z,24.17
2022-08-24T05:49:48.445Z,24.27
2022-08-24T05:52:16.454Z,24.37
2022-08-24T05:54:44.465Z,24.47
2022-08-24T05:57:12.765Z,24.56
2022-08-24T05:59:41.021Z,24.63
2022-08-24T06:02:10.542Z,24.69
2022-08-24T06:04:38.900Z,24.78
2022-08-24T06:07:10.139Z,24.83
2022-08-24T06:09:38.049Z,24.95
2022-08-24T06:12:06.522Z,24.80
2022-08-24T06:14:34.767Z,25.33
2022-08-24T06:17:04.186Z,25.63
2022-08-24T06:19:33.720Z,26.06
2022-08-24T06:22:02.045Z,26.75
2022-08-24T06:27:23.502Z,27.66
2022-08-24T06:32:50.297Z,26.84
2022-08-24T06:35:20.401Z,29.74
2022-08-24T06:37:48.227Z,30.28
2022-08-24T06:40:16.616Z,30.92
2022-08-24T06:42:44.541Z,31.44
2022-08-24T06:45:12.668Z,31.82
2022-08-24T06:47:40.637Z,32.49
2022-08-24T06:50:09.565Z,32.95
2022-08-24T06:52:40.659Z,33.45
2022-08-24T06:55:09.239Z,33.92
2022-08-24T06:57:37.138Z,34.42
2022-08-24T07:00:06.402Z,34.80
2022-08-24T07:02:34.875Z,35.39
2022-08-24T07:05:03.227Z,35.78
2022-08-24T07:07:31.133Z,36.19
2022-08-24T07:10:00.931Z,36.54
2022-08-24T07:12:28.860Z,36.97
2022-08-24T07:14:57.270Z,37.37
2022-08-24T07:17:25.208Z,37.60
2022-08-24T07:19:53.261Z,38.11
2022-08-24T07:22:21.536Z,38.47
2022-08-24T07:24:49.662Z,38.56
2022-08-24T07:27:21.233Z,39.13
2022-08-24T07:30:00.120Z,39.56
2022-08-24T07:32:37.154Z,39.94
2022-08-24T07:35:05.846Z,40.33
2022-08-24T07:37:41.516Z,40.75
2022-08-24T07:40:10.639Z,41.09
2022-08-24T07:42:40.931Z,41.49
2022-08-24T07:45:09.340Z,41.88
2022-08-24T07:47:41.631Z,42.19
2022-08-24T07:50:11.697Z,42.28
2022-08-24T07:52:39.583Z,42.82
2022-08-24T07:55:08.248Z,43.19
2022-08-24T07:57:39.497Z,43.46
2022-08-24T08:00:10.667Z,43.69
2022-08-24T08:02:38.589Z,43.94
2022-08-24T08:05:07.400Z,44.18
2022-08-24T08:07:35.296Z,44.48
2022-08-24T08:10:03.319Z,44.72
2022-08-24T08:12:31.221Z,44.95
2022-08-24T08:14:59.164Z,45.16
2022-08-24T08:17:28.427Z,45.43
2022-08-24T08:19:56.453Z,45.62
2022-08-24T08:22:41.483Z,46.04
2022-08-24T08:25:09.798Z,46.37
2022-08-24T08:27:38.026Z,46.70
2022-08-24T08:30:06.968Z,47.11
2022-08-24T08:32:36.331Z,47.28
2022-08-24T08:35:04.896Z,47.48
2022-08-24T08:37:33.070Z,47.60
2022-08-24T08:40:01.123Z,47.63
2022-08-24T08:42:58.054Z,47.81
2022-08-24T08:45:31.877Z,47.50
2022-08-24T08:48:24.994Z,47.83
2022-08-24T08:51:16.448Z,47.62
2022-08-24T08:54:10.059Z,47.83
2022-08-24T08:56:42.970Z,48.17
2022-08-24T08:59:14.040Z,48.29
2022-08-24T09:01:47.902Z,48.20
2022-08-24T09:04:46.172Z,48.55
2022-08-24T09:07:22.491Z,48.66
2022-08-24T09:10:08.994Z,48.62
2022-08-24T09:12:42.530Z,48.53
2022-08-24T09:15:37.694Z,48.57
2022-08-24T09:18:17.006Z,48.58
2022-08-24T09:21:18.290Z,48.87
2022-08-24T09:23:50.193Z,49.30
2022-08-24T09:26:22.031Z,49.96
2022-08-24T09:28:53.309Z,49.93
2022-08-24T09:31:44.128Z,49.65
2022-08-24T09:34:34.320Z,49.97
2022-08-24T09:37:08.156Z,49.79
2022-08-24T09:39:39.881Z,49.96
2022-08-24T09:42:41.590Z,50.05
2022-08-24T09:45:37.644Z,50.40
2022-08-24T09:48:32.084Z,50.86
2022-08-24T09:51:26.374Z,50.99
2022-08-24T09:54:31.768Z,51.56
2022-08-24T09:57:20.074Z,51.20
2022-08-24T10:00:10.273Z,52.51
2022-08-24T10:02:47.367Z,52.05
2022-08-24T10:05:23.945Z,52.35
2022-08-24T10:07:55.382Z,52.99
2022-08-24T10:10:31.485Z,52.16
2022-08-24T10:13:05.365Z,53.96
2022-08-24T10:15:37.613Z,54.44
2022-08-24T10:18:22.837Z,54.96
2022-08-24T10:21:04.554Z,54.61
2022-08-24T10:23:42.458Z,55.50
2022-08-24T10:26:14.848Z,54.86
2022-08-24T10:28:54.566Z,56.57
2022-08-24T10:31:24.651Z,56.29
2022-08-24T10:33:59.446Z,56.92
2022-08-24T10:37:01.029Z,56.94
2022-08-24T10:40:02.245Z,57.13
2022-08-24T10:43:31.412Z,57.93
2022-08-24T10:46:31.018Z,56.53
2022-08-24T10:49:42.167Z,57.87
2022-08-24T10:52:44.455Z,57.50
2022-08-24T10:55:17.683Z,57.98
2022-08-24T10:57:50.750Z,58.16
2022-08-24T11:00:22.844Z,58.21
2022-08-24T11:03:09.607Z,58.65
2022-08-24T11:05:41.267Z,58.71
2022-08-24T11:08:10.259Z,58.97
2022-08-24T11:10:40.976Z,59.38
2022-08-24T11:13:16.416Z,59.97
2022-08-24T11:15:48.995Z,59.09
2022-08-24T11:18:19.337Z,59.55
2022-08-24T11:20:49.737Z,60.99
2022-08-24T11:23:21.710Z,60.50
2022-08-24T11:25:56.460Z,61.66
2022-08-24T11:28:30.094Z,61.42
2022-08-24T11:30:58.982Z,60.49
2022-08-24T11:33:33.985Z,61.16
2022-08-24T11:36:02.887Z,59.07
2022-08-24T11:38:32.800Z,58.92
2022-08-24T11:41:04.554Z,59.27
2022-08-24T11:43:42.581Z,59.69
2022-08-24T11:46:22.438Z,58.73
2022-08-24T11:48:57.905Z,56.95
2022-08-24T11:51:32.677Z,54.12
2022-08-24T11:54:04.706Z,51.60
2022-08-24T11:56:36.165Z,49.85
2022-08-24T11:59:07.018Z,50.10
2022-08-24T12:01:42.907Z,47.07
2022-08-24T12:04:27.404Z,48.23
2022-08-24T12:06:59.263Z,47.92
2022-08-24T12:09:38.429Z,46.08
2022-08-24T12:12:13.883Z,46.85
2022-08-24T12:14:43.261Z,45.89
2022-08-24T12:17:14.991Z,46.18
2022-08-24T12:19:48.594Z,44.11
2022-08-24T12:22:17.116Z,45.03
2022-08-24T12:24:47.418Z,43.11
2022-08-24T12:27:18.424Z,43.33
2022-08-24T12:29:48.605Z,44.04
2022-08-24T12:32:29.987Z,42.08
2022-08-24T12:35:02.085Z,42.66
2022-08-24T12:37:32.963Z,43.30
2022-08-24T12:40:06.874Z,43.17
2022-08-24T12:42:40.056Z,41.87
2022-08-24T12:45:11.407Z,42.42
2022-08-24T12:47:47.330Z,43.22
2022-08-24T12:50:25.230Z,40.66
2022-08-24T12:53:45.513Z,42.00
2022-08-24T12:56:40.703Z,41.86
2022-08-24T12:59:17.339Z,40.93
2022-08-24T13:01:48.214Z,39.81
2022-08-24T13:04:20.328Z,40.62
2022-08-24T13:06:54.152Z,40.87
2022-08-24T13:09:54.151Z,41.56
2022-08-24T13:13:39.603Z,42.16
2022-08-24T13:16:12.639Z,41.97
2022-08-24T13:18:54.861Z,41.81
2022-08-24T13:21:47.712Z,41.71
2022-08-24T13:24:59.239Z,39.82
2022-08-24T13:28:33.723Z,38.45
2022-08-24T13:31:22.196Z,40.61
2022-08-24T13:33:54.513Z,40.61
2022-08-24T13:36:45.107Z,41.27
2022-08-24T13:39:32.326Z,39.17
2022-08-24T13:42:11.469Z,40.67
2022-08-24T13:45:01.314Z,40.62
2022-08-24T13:47:32.208Z,40.78
2022-08-24T13:50:06.320Z,40.09
2022-08-24T13:52:41.516Z,39.41
2022-08-24T13:55:29.670Z,41.23
2022-08-24T13:58:11.501Z,40.26
2022-08-24T14:00:42.977Z,39.49
2022-08-24T14:03:16.118Z,40.30
2022-08-24T14:05:47.161Z,40.81
2022-08-24T14:08:30.494Z,41.47
2022-08-24T14:11:03.390Z,41.47
2022-08-24T14:13:38.694Z,40.01
2022-08-24T14:16:25.702Z,40.13
2022-08-24T14:19:00.174Z,40.44
2022-08-24T14:21:37.397Z,40.39
2022-08-24T14:24:06.486Z,40.64
2022-08-24T14:26:56.056Z,41.29
2022-08-24T14:29:43.555Z,40.17
2022-08-24T14:32:36.670Z,41.11
2022-08-24T14:35:36.510Z,40.94
2022-08-24T14:38:30.900Z,40.53
2022-08-24T14:41:08.741Z,38.71
2022-08-24T14:44:07.164Z,39.36
2022-08-24T14:46:40.221Z,39.29
2022-08-24T14:49:14.615Z,40.42
2022-08-24T14:51:57.814Z,39.12
2022-08-24T14:54:33.905Z,40.16
2022-08-24T14:57:16.364Z,39.72
2022-08-24T14:59:49.700Z,40.25
2022-08-24T15:02:50.530Z,39.68
2022-08-24T15:05:27.992Z,38.38
2022-08-24T15:07:57.883Z,39.34
2022-08-24T15:10:27.045Z,39.60
2022-08-24T15:13:02.840Z,39.17
2022-08-24T15:15:34.324Z,40.23
2022-08-24T15:18:06.817Z,38.79
2022-08-24T15:20:57.469Z,40.08
2022-08-24T15:23:28.048Z,38.56
2022-08-24T15:25:56.901Z,38.85
2022-08-24T15:28:27.199Z,38.61
2022-08-24T15:30:56.532Z,38.42
2022-08-24T15:33:26.181Z,38.87
2022-08-24T15:36:06.922Z,39.72
2022-08-24T15:38:36.576Z,39.03
2022-08-24T15:41:06.577Z,38.15
2022-08-24T15:43:35.043Z,39.87
2022-08-24T15:46:03.219Z,38.75
2022-08-24T15:48:33.037Z,39.64
2022-08-24T15:51:01.654Z,38.93
2022-08-24T15:53:35.307Z,38.74
2022-08-24T15:56:35.798Z,39.41
2022-08-24T15:59:08.612Z,38.43
2022-08-24T16:01:54.045Z,39.42
2022-08-24T16:04:44.602Z,37.99
2022-08-24T16:07:17.294Z,38.06
2022-08-24T16:09:45.265Z,36.45
2022-08-24T16:12:14.050Z,38.39
2022-08-24T16:14:47.327Z,37.44
2022-08-24T16:17:37.407Z,36.34
2022-08-24T16:20:10.631Z,38.34
2022-08-24T16:22:40.683Z,36.93
2022-08-24T16:25:24.648Z,37.56
2022-08-24T16:28:00.462Z,37.93
2022-08-24T16:30:41.383Z,38.56
2022-08-24T16:33:10.381Z,37.41
2022-08-24T16:36:00.928Z,36.86
2022-08-24T16:38:46.615Z,37.07
2022-08-24T16:41:19.579Z,35.18
2022-08-24T16:43:47.633Z,36.95
2022-08-24T16:46:20.007Z,37.61
2022-08-24T16:48:47.906Z,36.38
2022-08-24T16:51:17.176Z,36.85
2022-08-24T16:53:45.099Z,37.38
2022-08-24T16:56:16.480Z,36.30
2022-08-24T16:58:44.876Z,37.02
2022-08-24T17:01:14.077Z,36.03
2022-08-24T17:03:42.670Z,36.63
2022-08-24T17:06:12.490Z,36.58
2022-08-24T17:08:41.863Z,35.74
2022-08-24T17:11:09.825Z,36.44
2022-08-24T17:13:49.490Z,36.17
2022-08-24T17:16:18.324Z,35.65
2022-08-24T17:18:46.365Z,36.32
2022-08-24T17:21:17.358Z,36.27
2022-08-24T17:23:47.531Z,33.96
2022-08-24T17:26:20.178Z,36.82
2022-08-24T17:28:50.181Z,35.65
2022-08-24T17:31:31.172Z,36.34
2022-08-24T17:34:00.550Z,33.52
2022-08-24T17:36:34.961Z,34.26
2022-08-24T17:39:13.455Z,35.28
2022-08-24T17:41:43.672Z,36.48
2022-08-24T17:44:19.756Z,35.21
2022-08-24T17:47:12.590Z,34.49
2022-08-24T17:50:06.459Z,36.25
2022-08-24T17:52:41.185Z,34.04
2022-08-24T17:55:26.762Z,33.65
2022-08-24T17:57:57.588Z,35.11
2022-08-24T18:00:26.974Z,35.88
2022-08-24T18:03:07.454Z,33.22
2022-08-24T18:05:42.293Z,34.03
2022-08-24T18:08:12.690Z,34.00
2022-08-24T18:10:51.347Z,33.87
2022-08-24T18:13:30.211Z,33.00
2022-08-24T18:16:05.219Z,34.75
2022-08-24T18:18:41.251Z,33.59
2022-08-24T18:21:16.469Z,33.60
2022-08-24T18:23:54.780Z,33.47
2022-08-24T18:26:34.551Z,35.01
2022-08-24T18:29:13.001Z,33.55
2022-08-24T18:31:44.961Z,32.51
2022-08-24T18:34:26.263Z,33.27
2022-08-24T18:36:58.167Z,34.22
2022-08-24T18:39:26.731Z,33.30
2022-08-24T18:41:59.921Z,34.49
2022-08-24T18:44:31.721Z,32.60
2022-08-24T18:47:02.319Z,32.55
2022-08-24T18:49:30.897Z,31.62
2022-08-24T18:52:01.523Z,33.11
2022-08-24T18:54:51.051Z,33.98
2022-08-24T18:57:31.174Z,31.93
2022-08-24T19:00:10.563Z,32.27
2022-08-24T19:02:42.367Z,33.71
2022-08-24T19:05:21.884Z,33.58
2022-08-24T19:08:03.986Z,32.40
2022-08-24T19:10:40.619Z,33.35
2022-08-24T19:13:21.041Z,33.26
2022-08-24T19:15:50.843Z,33.16
2022-08-24T19:18:20.433Z,33.06
2022-08-24T19:20:50.123Z,32.96
2022-08-24T19:23:20.068Z,32.83
2022-08-24T19:25:48.187Z,32.79
2022-08-24T19:28:17.739Z,32.69
2022-08-24T19:30:46.963Z,32.58
2022-08-24T19:33:16.202Z,32.49
2022-08-24T19:35:44.077Z,32.40
2022-08-24T19:38:13.064Z,32.39
2022-08-24T19:40:47.590Z,32.32
2022-08-24T19:43:17.553Z,32.11
2022-08-24T19:46:05.618Z,32.03
2022-08-24T19:48:34.448Z,32.08
2022-08-24T19:51:02.962Z,31.80
2022-08-24T19:53:31.649Z,31.92
2022-08-24T19:56:00.671Z,31.83
2022-08-24T19:58:31.533Z,31.73
2022-08-24T20:01:03.912Z,31.67
2022-08-24T20:03:31.927Z,31.52
2022-08-24T20:05:59.859Z,31.48
2022-08-24T20:08:27.759Z,31.47
2022-08-24T20:10:58.927Z,31.38
2022-08-24T20:13:26.926Z,31.34
2022-08-24T20:15:56.429Z,31.28
2022-08-24T20:18:26.377Z,31.15
2022-08-24T20:20:54.232Z,31.13
2022-08-24T20:23:22.270Z,31.11
2022-08-24T20:25:53.297Z,31.07
2022-08-24T20:28:30.068Z,31.00
2022-08-24T20:31:00.442Z,30.98
2022-08-24T20:33:28.868Z,30.94
2022-08-24T20:35:56.709Z,30.87
2022-08-24T20:38:24.637Z,30.83
2022-08-24T20:40:53.028Z,30.77
2022-08-24T20:43:20.937Z,30.72
2022-08-24T20:45:50.832Z,30.66
2022-08-24T20:48:20.952Z,30.61
2022-08-24T20:50:49.408Z,30.52
2022-08-24T20:53:17.333Z,30.51
2022-08-24T20:55:45.654Z,30.46
2022-08-24T20:58:13.594Z,30.42
2022-08-24T21:00:44.391Z,30.38
2022-08-24T21:03:15.987Z,30.34
2022-08-24T21:05:45.457Z,30.05
2022-08-24T21:08:13.672Z,30.25
2022-08-24T21:10:42.229Z,29.97
2022-08-24T21:13:10.440Z,30.03
2022-08-24T21:15:38.633Z,30.11
2022-08-24T21:18:06.839Z,30.06
2022-08-24T21:20:35.841Z,30.01
2022-08-24T21:23:06.313Z,29.94
2022-08-24T21:25:34.174Z,29.91
2022-08-24T21:28:03.001Z,29.80
2022-08-24T21:30:31.431Z,29.86
2022-08-24T21:33:24.389Z,29.78
2022-08-24T21:35:53.867Z,29.71
2022-08-24T21:38:25.546Z,29.73
2022-08-24T21:40:53.732Z,29.70
2022-08-24T21:43:21.703Z,29.57
2022-08-24T21:45:50.147Z,29.63
2022-08-24T21:48:18.232Z,29.50
2022-08-24T21:50:46.254Z,29.59
2022-08-24T21:53:22.255Z,29.55
2022-08-24T21:55:57.723Z,29.45
2022-08-24T21:58:26.527Z,29.48
2022-08-24T22:00:58.838Z,29.68
2022-08-24T22:03:31.719Z,29.73
2022-08-24T22:06:08.553Z,29.74
2022-08-24T22:08:37.906Z,29.79
2022-08-24T22:11:07.251Z,29.80
2022-08-24T22:13:35.542Z,29.85
2022-08-24T22:16:03.852Z,29.87
2022-08-24T22:18:31.966Z,29.94
2022-08-24T22:21:01.079Z,29.97
2022-08-24T22:23:29.050Z,30.03
2022-08-24T22:25:56.971Z,30.01
2022-08-24T22:28:26.225Z,30.03
2022-08-24T22:30:54.200Z,30.01
2022-08-24T22:33:22.777Z,30.12
2022-08-24T22:35:51.801Z,30.14
2022-08-24T22:38:19.750Z,30.16
2022-08-24T22:40:47.786Z,30.19
2022-08-24T22:43:15.869Z,30.16
2022-08-24T22:45:46.348Z,30.12
2022-08-24T22:48:14.714Z,30.03
2022-08-24T22:50:43.932Z,30.16
2022-08-24T22:53:12.010Z,30.08
2022-08-24T22:55:39.971Z,30.12
2022-08-24T22:58:07.898Z,30.09
2022-08-24T23:00:35.762Z,30.08
2022-08-24T23:03:05.410Z,30.04
2022-08-24T23:05:33.639Z,30.03
2022-08-24T23:08:01.911Z,30.00
2022-08-24T23:10:29.777Z,30.00
2022-08-24T23:12:59.001Z,29.72
2022-08-24T23:15:26.824Z,29.95
2022-08-24T23:17:54.661Z,29.94
2022-08-24T23:22:53.643Z,29.85
2022-08-24T23:25:21.535Z,29.80
2022-08-24T23:27:50.216Z,29.76
2022-08-24T23:30:18.191Z,29.74
2022-08-24T23:32:46.285Z,29.70
2022-08-24T23:35:14.190Z,29.63
2022-08-24T23:37:42.225Z,29.49
2022-08-24T23:40:12.506Z,29.57
2022-08-24T23:42:41.452Z,29.51
2022-08-24T23:45:12.193Z,29.51
2022-08-24T23:47:40.876Z,29.47
2022-08-24T23:50:10.889Z,29.45
2022-08-24T23:52:39.907Z,29.44
2022-08-24T23:55:19.976Z,29.38
2022-08-24T23:57:51.454Z,29.34
